Time;durP1;ratioP1;P1;durP2;ratioP2;P2;SDS_P1;SDS_P2;PMS_P1;PMS_P2;Temp;Humidity;BMP_temperature;BMP_pressure;BME280_temperature;BME280_humidity;BME280_pressure;Samples;Min_cycle;Max_cycle;Signal;HPM_P1;HPM_P2
2023/04/13 00:00:23;;;;;;;;;;;6.30;99.90;;;;;;4937591;29;19914;-74
2023/04/13 00:02:55;;;;;;;;;;;6.30;99.90;;;;;;4910737;29;19965;-74
2023/04/13 00:05:21;;;;;;;;;;;6.30;99.90;;;;;;4946799;28;20300;-74
2023/04/13 00:07:47;;;;;;;;;;;6.30;99.90;;;;;;4940259;29;19922;-74
2023/04/13 00:10:14;;;;;;;;;;;6.30;99.90;;;;;;4936879;29;20231;-74
2023/04/13 00:12:41;;;;;;;;;;;6.30;99.90;;;;;;4951412;28;19919;-74
2023/04/13 00:15:07;;;;;;;;;;;6.30;99.90;;;;;;4937530;29;20001;-74
2023/04/13 00:17:33;;;;;;;;;;;6.20;99.90;;;;;;4937204;29;19966;-74
2023/04/13 00:19:59;;;;;;;;;;;6.20;99.90;;;;;;4937597;29;19912;-74
2023/04/13 00:22:25;;;;;;;;;;;6.20;99.90;;;;;;4921138;29;19986;-74
2023/04/13 00:24:54;;;;;;;;;;;6.10;99.90;;;;;;4947148;29;19919;-74
2023/04/13 00:27:25;;;;;;;;;;;6.10;99.90;;;;;;4966006;28;19918;-74
2023/04/13 00:29:51;;;;;;;;;;;6.10;99.90;;;;;;4936829;29;19997;-74
2023/04/13 00:32:23;;;;;;;;;;;6.10;99.90;;;;;;4937161;29;20558;-74
2023/04/13 00:34:48;;;;;;;;;;;6.10;99.90;;;;;;4934720;29;19946;-74
2023/04/13 00:37:15;;;;;;;;;;;6.00;99.90;;;;;;4936623;29;19958;-74
2023/04/13 00:39:42;;;;;;;;;;;6.10;99.90;;;;;;4952319;28;19919;-74
2023/04/13 00:42:08;;;;;;;;;;;6.20;99.90;;;;;;4931773;29;20392;-74
2023/04/13 00:44:34;;;;;;;;;;;6.10;99.90;;;;;;4946247;28;19915;-74
2023/04/13 00:47:01;;;;;;;;;;;6.10;99.90;;;;;;4946474;29;19921;-74
2023/04/13 00:49:28;;;;;;;;;;;6.20;99.90;;;;;;4936603;29;19953;-74
2023/04/13 00:51:54;;;;;;;;;;;6.20;99.90;;;;;;4945812;29;19977;-74
2023/04/13 00:54:19;;;;;;;;;;;6.20;99.90;;;;;;4952790;29;19922;-74
2023/04/13 00:56:45;;;;;;;;;;;6.30;99.90;;;;;;4952171;29;19958;-73
2023/04/13 00:59:10;;;;;;;;;;;6.20;99.90;;;;;;4949675;28;19919;-74
2023/04/13 01:01:44;;;;;;;;;;;6.20;99.90;;;;;;4945254;28;19915;-74
2023/04/13 01:04:11;;;;;;;;;;;6.30;99.90;;;;;;4936026;29;19919;-74
2023/04/13 01:06:40;;;;;;;;;;;6.30;99.90;;;;;;4935857;29;19915;-74
2023/04/13 01:09:16;;;;;;;;;;;6.40;99.90;;;;;;4939764;29;19981;-75
2023/04/13 01:11:57;;;;;;;;;;;6.40;99.90;;;;;;4945659;29;19986;-74
2023/04/13 01:14:36;;;;;;;;;;;6.40;99.90;;;;;;4940361;29;19925;-74
2023/04/13 01:17:04;;;;;;;;;;;6.40;99.90;;;;;;4951912;29;19914;-74
2023/04/13 01:19:42;;;;;;;;;;;6.40;99.90;;;;;;4925770;29;19975;-74
2023/04/13 01:22:09;;;;;;;;;;;6.30;99.90;;;;;;4936295;29;19919;-74
2023/04/13 01:24:34;;;;;;;;;;;6.30;99.90;;;;;;4931693;29;19925;-74
2023/04/13 01:27:10;;;;;;;;;;;6.20;99.90;;;;;;4942403;29;19953;-74
2023/04/13 01:29:36;;;;;;;;;;;6.10;99.90;;;;;;4931223;29;19915;-74
2023/04/13 01:32:05;;;;;;;;;;;6.20;99.90;;;;;;4956444;28;19914;-74
2023/04/13 01:34:31;;;;;;;;;;;6.00;99.90;;;;;;4950902;28;19925;-75
2023/04/13 01:36:57;;;;;;;;;;;6.10;99.90;;;;;;4925407;29;19911;-74
2023/04/13 01:39:25;;;;;;;;;;;6.10;99.90;;;;;;4949429;29;20073;-74
2023/04/13 01:41:51;;;;;;;;;;;6.10;99.90;;;;;;4951655;28;20242;-74
2023/04/13 01:44:17;;;;;;;;;;;6.00;99.90;;;;;;4941972;28;19915;-74
2023/04/13 01:46:45;;;;;;;;;;;6.10;99.90;;;;;;4934304;29;19921;-74
2023/04/13 01:49:12;;;;;;;;;;;6.10;99.90;;;;;;4934273;29;20017;-74
2023/04/13 01:51:38;;;;;;;;;;;6.10;99.90;;;;;;4948390;28;19926;-74
2023/04/13 01:54:13;;;;;;;;;;;6.10;99.90;;;;;;4941746;29;19910;-73
2023/04/13 01:56:39;;;;;;;;;;;6.10;99.90;;;;;;4949577;29;20403;-74
2023/04/13 01:59:05;;;;;;;;;;;6.10;99.90;;;;;;4951568;29;19911;-74
2023/04/13 02:01:31;;;;;;;;;;;6.10;99.90;;;;;;4927752;29;19958;-74
2023/04/13 02:03:56;;;;;;;;;;;6.20;99.90;;;;;;4948956;28;20022;-73
2023/04/13 02:06:24;;;;;;;;;;;6.20;99.90;;;;;;4919435;29;19914;-74
2023/04/13 02:08:50;;;;;;;;;;;6.30;99.90;;;;;;4928204;29;19953;-74
2023/04/13 02:11:16;;;;;;;;;;;6.30;99.90;;;;;;4936345;29;19962;-74
2023/04/13 02:13:42;;;;;;;;;;;6.30;99.90;;;;;;4951678;29;19914;-74
2023/04/13 02:16:08;;;;;;;;;;;6.30;99.90;;;;;;4940597;28;20010;-74
2023/04/13 02:18:35;;;;;;;;;;;6.40;99.90;;;;;;4935091;29;20014;-74
2023/04/13 02:21:11;;;;;;;;;;;6.40;99.90;;;;;;4936234;29;20386;-73
2023/04/13 02:23:39;;;;;;;;;;;6.40;99.90;;;;;;4942970;29;20371;-73
2023/04/13 02:26:16;;;;;;;;;;;6.50;99.90;;;;;;4926323;29;19914;-75
2023/04/13 02:28:42;;;;;;;;;;;6.50;99.90;;;;;;4948136;29;19950;-75
2023/04/13 02:31:08;;;;;;;;;;;6.50;99.90;;;;;;4947322;29;20332;-73
2023/04/13 02:33:35;;;;;;;;;;;6.50;99.90;;;;;;4935522;29;19915;-75
2023/04/13 02:36:01;;;;;;;;;;;6.50;99.90;;;;;;4934844;29;19941;-75
2023/04/13 02:38:27;;;;;;;;;;;6.60;99.90;;;;;;4950742;28;19998;-75
2023/04/13 02:40:57;;;;;;;;;;;6.60;99.90;;;;;;4947153;29;20467;-75
2023/04/13 02:43:25;;;;;;;;;;;6.60;99.90;;;;;;4933584;29;19985;-75
2023/04/13 02:45:52;;;;;;;;;;;6.50;99.90;;;;;;4935899;29;20025;-73
2023/04/13 02:48:18;;;;;;;;;;;6.50;99.90;;;;;;4926969;29;19953;-73
2023/04/13 02:50:46;;;;;;;;;;;6.50;99.90;;;;;;4912954;29;19946;-73
2023/04/13 02:53:11;;;;;;;;;;;6.40;99.90;;;;;;4937428;29;20374;-75
2023/04/13 02:55:37;;;;;;;;;;;6.30;99.90;;;;;;4937350;29;20010;-75
2023/04/13 02:58:04;;;;;;;;;;;6.30;99.90;;;;;;4938733;29;20512;-75
2023/04/13 03:00:29;;;;;;;;;;;6.30;99.90;;;;;;4952251;28;19918;-73
2023/04/13 03:02:56;;;;;;;;;;;6.30;99.90;;;;;;4943236;29;20367;-75
2023/04/13 03:05:22;;;;;;;;;;;6.20;99.90;;;;;;4945773;28;19918;-75
2023/04/13 03:07:48;;;;;;;;;;;6.20;99.90;;;;;;4938747;29;19926;-75
2023/04/13 03:10:14;;;;;;;;;;;6.10;99.90;;;;;;4937546;29;19927;-75
2023/04/13 03:12:40;;;;;;;;;;;6.10;99.90;;;;;;4954290;29;19970;-75
2023/04/13 03:15:09;;;;;;;;;;;6.10;99.90;;;;;;4937965;29;20268;-75
2023/04/13 03:17:39;;;;;;;;;;;6.10;99.90;;;;;;4933202;29;19930;-75
2023/04/13 03:20:08;;;;;;;;;;;6.20;99.90;;;;;;4936528;29;19921;-75
2023/04/13 03:22:35;;;;;;;;;;;6.20;99.90;;;;;;4953373;28;19914;-75
2023/04/13 03:25:01;;;;;;;;;;;6.20;99.90;;;;;;4924330;29;20015;-75
2023/04/13 03:27:27;;;;;;;;;;;6.20;99.90;;;;;;4936926;29;19970;-75
2023/04/13 03:29:54;;;;;;;;;;;6.20;99.90;;;;;;4915013;29;20836;-74
2023/04/13 03:32:20;;;;;;;;;;;6.30;99.90;;;;;;4917775;29;19958;-75
2023/04/13 03:34:45;;;;;;;;;;;6.20;99.90;;;;;;4946898;28;20514;-75
2023/04/13 03:37:11;;;;;;;;;;;6.30;99.90;;;;;;4966495;28;19910;-75
2023/04/13 03:39:38;;;;;;;;;;;6.30;99.90;;;;;;4952285;28;20287;-75
2023/04/13 03:42:04;;;;;;;;;;;6.30;99.90;;;;;;4942498;29;20339;-75
2023/04/13 03:44:30;;;;;;;;;;;6.30;99.90;;;;;;4936787;29;20013;-75
2023/04/13 03:46:55;;;;;;;;;;;6.30;99.90;;;;;;4937659;29;19954;-75
2023/04/13 03:49:22;;;;;;;;;;;6.30;99.90;;;;;;4931311;29;19914;-75
2023/04/13 03:51:48;;;;;;;;;;;6.30;99.90;;;;;;4915801;29;19922;-75
2023/04/13 03:54:15;;;;;;;;;;;6.30;99.90;;;;;;4947152;28;19915;-75
2023/04/13 03:56:40;;;;;;;;;;;6.20;99.90;;;;;;4946213;29;20528;-75
2023/04/13 03:59:06;;;;;;;;;;;6.20;99.90;;;;;;4940994;29;19911;-75
2023/04/13 04:01:32;;;;;;;;;;;6.20;99.90;;;;;;4953160;28;19922;-75
2023/04/13 04:03:57;;;;;;;;;;;6.20;99.90;;;;;;4936950;29;19914;-75
2023/04/13 04:06:23;;;;;;;;;;;6.10;99.90;;;;;;4953092;29;20286;-75
2023/04/13 04:08:49;;;;;;;;;;;6.20;99.90;;;;;;4931823;29;20478;-75
2023/04/13 04:11:15;;;;;;;;;;;6.30;99.90;;;;;;4921136;29;19919;-75
2023/04/13 04:13:41;;;;;;;;;;;6.30;99.90;;;;;;4937345;29;20486;-75
2023/04/13 04:16:08;;;;;;;;;;;6.30;99.90;;;;;;4920872;29;19963;-75
2023/04/13 04:18:35;;;;;;;;;;;6.30;99.90;;;;;;4921205;29;19922;-75
2023/04/13 04:21:03;;;;;;;;;;;6.30;99.90;;;;;;4952914;29;19918;-75
2023/04/13 04:23:33;;;;;;;;;;;6.40;99.90;;;;;;4945769;29;20365;-75
2023/04/13 04:26:01;;;;;;;;;;;6.40;99.90;;;;;;4952692;29;19911;-75
2023/04/13 04:28:37;;;;;;;;;;;6.40;99.90;;;;;;4933329;29;19910;-75
2023/04/13 04:31:09;;;;;;;;;;;6.40;99.90;;;;;;4945346;29;19922;-75
2023/04/13 04:33:37;;;;;;;;;;;6.40;99.90;;;;;;4929332;29;19915;-75
2023/04/13 04:36:06;;;;;;;;;;;6.40;99.90;;;;;;4952286;28;19954;-75
2023/04/13 04:38:33;;;;;;;;;;;6.40;99.90;;;;;;4936133;29;19915;-75
2023/04/13 04:41:00;;;;;;;;;;;6.50;99.90;;;;;;4952205;29;19919;-75
2023/04/13 04:43:29;;;;;;;;;;;6.40;99.90;;;;;;4936870;29;20000;-75
2023/04/13 04:45:58;;;;;;;;;;;6.30;99.90;;;;;;4920817;29;19915;-75
2023/04/13 04:48:25;;;;;;;;;;;6.30;99.90;;;;;;4951577;28;19942;-75
2023/04/13 04:50:54;;;;;;;;;;;6.30;99.90;;;;;;4932808;29;19922;-76
2023/04/13 04:53:21;;;;;;;;;;;6.20;99.90;;;;;;4936399;29;19930;-75
2023/04/13 04:55:46;;;;;;;;;;;6.20;99.90;;;;;;4932944;29;19924;-76
2023/04/13 04:58:13;;;;;;;;;;;6.20;99.90;;;;;;4949661;29;20025;-75
2023/04/13 05:00:39;;;;;;;;;;;6.30;99.90;;;;;;4948362;29;19915;-75
2023/04/13 05:03:06;;;;;;;;;;;6.30;99.90;;;;;;4920675;29;19921;-75
2023/04/13 05:05:32;;;;;;;;;;;6.30;99.90;;;;;;4938995;29;20212;-75
2023/04/13 05:07:59;;;;;;;;;;;6.30;99.90;;;;;;4951602;28;19921;-75
2023/04/13 05:10:27;;;;;;;;;;;6.40;99.90;;;;;;4939130;29;19918;-75
2023/04/13 05:12:52;;;;;;;;;;;6.50;99.90;;;;;;4938579;29;19918;-76
2023/04/13 05:15:21;;;;;;;;;;;6.50;99.90;;;;;;4930917;28;19922;-75
2023/04/13 05:17:49;;;;;;;;;;;6.60;99.90;;;;;;4944661;29;19919;-75
2023/04/13 05:20:15;;;;;;;;;;;6.70;99.90;;;;;;4930163;29;19911;-75
2023/04/13 05:22:41;;;;;;;;;;;6.70;99.90;;;;;;4914664;29;20429;-76
2023/04/13 05:25:08;;;;;;;;;;;6.70;99.90;;;;;;4939448;29;19922;-76
2023/04/13 05:27:37;;;;;;;;;;;6.80;99.90;;;;;;4913583;29;19915;-75
2023/04/13 05:30:04;;;;;;;;;;;6.90;99.90;;;;;;4941861;28;19950;-76
2023/04/13 05:32:36;;;;;;;;;;;7.00;99.90;;;;;;4935619;29;19914;-75
2023/04/13 05:35:05;;;;;;;;;;;7.00;99.90;;;;;;4945251;28;19915;-75
2023/04/13 05:37:31;;;;;;;;;;;7.10;99.90;;;;;;4933488;29;20369;-75
2023/04/13 05:39:58;;;;;;;;;;;7.20;99.90;;;;;;4928819;29;20002;-75
2023/04/13 05:42:25;;;;;;;;;;;7.20;99.90;;;;;;4928553;29;19946;-75
2023/04/13 05:44:51;;;;;;;;;;;7.30;99.90;;;;;;4927181;29;20332;-75
2023/04/13 05:47:20;;;;;;;;;;;7.30;99.90;;;;;;4942723;28;20025;-75
2023/04/13 05:49:46;;;;;;;;;;;7.40;99.90;;;;;;4926217;29;19918;-75
2023/04/13 05:52:11;;;;;;;;;;;7.40;99.90;;;;;;4951699;28;19915;-74
2023/04/13 05:54:37;;;;;;;;;;;7.40;99.90;;;;;;4933293;29;20037;-74
2023/04/13 05:57:03;;;;;;;;;;;7.50;99.90;;;;;;4932458;29;19922;-73
2023/04/13 05:59:30;;;;;;;;;;;7.50;99.90;;;;;;4952110;28;19914;-74
2023/04/13 06:01:56;;;;;;;;;;;7.60;99.90;;;;;;4955971;28;19911;-74
2023/04/13 06:04:21;;;;;;;;;;;7.70;99.90;;;;;;4936607;29;20025;-74
2023/04/13 06:06:47;;;;;;;;;;;7.70;99.90;;;;;;4938347;29;19914;-75
2023/04/13 06:09:13;;;;;;;;;;;7.80;99.90;;;;;;4935882;29;19949;-74
2023/04/13 06:11:39;;;;;;;;;;;7.80;99.90;;;;;;4928845;29;19977;-73
2023/04/13 06:14:05;;;;;;;;;;;7.90;99.90;;;;;;4918431;29;19937;-73
2023/04/13 06:16:30;;;;;;;;;;;7.90;99.90;;;;;;4939803;29;19919;-74
2023/04/13 06:18:57;;;;;;;;;;;7.90;99.90;;;;;;4951906;28;20343;-74
2023/04/13 06:21:24;;;;;;;;;;;8.00;99.90;;;;;;4935513;29;20035;-74
2023/04/13 06:23:50;;;;;;;;;;;8.00;99.90;;;;;;4909794;29;19929;-74
2023/04/13 06:26:16;;;;;;;;;;;8.10;99.90;;;;;;4945186;29;19910;-74
2023/04/13 06:28:42;;;;;;;;;;;8.10;99.90;;;;;;4928320;29;19915;-74
2023/04/13 06:31:07;;;;;;;;;;;8.10;99.90;;;;;;4942439;29;19914;-75
2023/04/13 06:33:34;;;;;;;;;;;8.10;99.90;;;;;;4935451;29;19914;-74
2023/04/13 06:36:00;;;;;;;;;;;8.20;99.90;;;;;;4931509;29;19915;-74
2023/04/13 06:38:26;;;;;;;;;;;8.10;99.90;;;;;;4954522;28;20316;-74
2023/04/13 06:40:52;;;;;;;;;;;8.10;99.90;;;;;;4925217;29;19925;-74
2023/04/13 06:43:18;;;;;;;;;;;8.20;99.90;;;;;;4941713;29;20358;-74
2023/04/13 06:45:45;;;;;;;;;;;8.20;99.90;;;;;;4932938;29;19919;-73
2023/04/13 06:48:11;;;;;;;;;;;8.20;99.90;;;;;;4939631;29;19922;-74
2023/04/13 06:50:38;;;;;;;;;;;8.30;99.90;;;;;;4938202;29;19918;-73
2023/04/13 06:53:04;;;;;;;;;;;8.30;99.90;;;;;;4945697;28;19918;-74
2023/04/13 06:55:31;;;;;;;;;;;8.40;99.90;;;;;;4939763;29;20021;-74
2023/04/13 06:57:57;;;;;;;;;;;8.50;99.90;;;;;;4935573;29;20335;-74
2023/04/13 07:00:23;;;;;;;;;;;8.50;99.90;;;;;;4938477;29;20033;-75
2023/04/13 07:02:48;;;;;;;;;;;8.60;99.90;;;;;;4956949;28;19915;-75
2023/04/13 07:05:14;;;;;;;;;;;8.60;99.90;;;;;;4935667;29;19915;-74
2023/04/13 07:07:39;;;;;;;;;;;8.70;99.90;;;;;;4957044;28;19918;-74
2023/04/13 07:10:06;;;;;;;;;;;8.70;99.90;;;;;;4947702;28;19919;-74
2023/04/13 07:12:32;;;;;;;;;;;8.70;99.90;;;;;;4939411;29;19922;-74
2023/04/13 07:14:58;;;;;;;;;;;8.70;99.90;;;;;;4924415;29;19910;-74
2023/04/13 07:17:24;;;;;;;;;;;8.80;99.90;;;;;;4919093;29;19922;-74
2023/04/13 07:19:50;;;;;;;;;;;8.90;99.90;;;;;;4954626;29;19998;-74
2023/04/13 07:22:16;;;;;;;;;;;8.90;99.90;;;;;;4965533;28;19910;-74
2023/04/13 07:24:41;;;;;;;;;;;9.00;99.90;;;;;;4940007;29;19914;-74
2023/04/13 07:27:07;;;;;;;;;;;9.00;99.90;;;;;;4918401;29;20631;-74
2023/04/13 07:29:34;;;;;;;;;;;9.00;99.90;;;;;;4927866;29;20522;-74
2023/04/13 07:32:00;;;;;;;;;;;9.00;99.90;;;;;;4917438;29;19950;-74
2023/04/13 07:34:26;;;;;;;;;;;9.00;99.90;;;;;;4923138;29;19993;-73
2023/04/13 07:36:51;;;;;;;;;;;9.00;99.90;;;;;;4934880;29;20280;-74
2023/04/13 07:39:17;;;;;;;;;;;9.00;99.90;;;;;;4937936;29;19946;-74
2023/04/13 07:41:45;;;;;;;;;;;9.10;99.90;;;;;;4935625;29;19922;-73
2023/04/13 07:44:10;;;;;;;;;;;9.00;99.90;;;;;;4934052;29;19926;-74
2023/04/13 07:46:37;;;;;;;;;;;9.10;99.90;;;;;;4931607;29;20323;-74
2023/04/13 07:49:02;;;;;;;;;;;9.10;99.90;;;;;;4934502;29;19915;-74
2023/04/13 07:51:28;;;;;;;;;;;9.10;99.90;;;;;;4934106;29;19915;-74
2023/04/13 07:53:54;;;;;;;;;;;9.20;99.90;;;;;;4934824;29;20355;-74
2023/04/13 07:56:20;;;;;;;;;;;9.30;99.90;;;;;;4934324;29;19946;-74
2023/04/13 07:58:46;;;;;;;;;;;9.30;99.90;;;;;;4935488;29;19929;-74
2023/04/13 08:01:11;;;;;;;;;;;9.40;99.90;;;;;;4934393;29;19915;-74
2023/04/13 08:03:37;;;;;;;;;;;9.40;99.90;;;;;;4938768;29;19925;-73
2023/04/13 08:06:07;;;;;;;;;;;9.50;99.90;;;;;;4938533;29;19915;-74
2023/04/13 08:08:32;;;;;;;;;;;9.60;99.90;;;;;;4941489;29;19964;-74
2023/04/13 08:10:58;;;;;;;;;;;9.70;99.90;;;;;;4942898;29;20439;-74
2023/04/13 08:13:25;;;;;;;;;;;9.70;99.90;;;;;;4962934;28;19914;-74
2023/04/13 08:15:51;;;;;;;;;;;9.70;99.90;;;;;;4944116;29;19972;-74
2023/04/13 08:18:16;;;;;;;;;;;9.70;99.90;;;;;;4944160;29;20331;-73
2023/04/13 08:20:42;;;;;;;;;;;9.80;99.90;;;;;;4943989;29;19914;-73
2023/04/13 08:23:08;;;;;;;;;;;9.80;99.90;;;;;;4930764;29;20338;-73
2023/04/13 08:25:38;;;;;;;;;;;9.90;99.90;;;;;;4911495;29;20323;-73
2023/04/13 08:28:03;;;;;;;;;;;9.90;99.90;;;;;;4914863;29;19910;-74
2023/04/13 08:30:33;;;;;;;;;;;9.80;99.90;;;;;;4930238;29;19915;-74
2023/04/13 08:32:59;;;;;;;;;;;9.90;99.90;;;;;;4940036;29;20578;-74
2023/04/13 08:35:25;;;;;;;;;;;9.90;99.90;;;;;;4916900;29;20372;-73
2023/04/13 08:37:51;;;;;;;;;;;9.90;99.90;;;;;;4956439;28;19958;-74
2023/04/13 08:40:17;;;;;;;;;;;10.00;99.90;;;;;;4936493;29;19910;-74
2023/04/13 08:42:44;;;;;;;;;;;9.90;99.90;;;;;;4936461;29;19925;-74
2023/04/13 08:45:10;;;;;;;;;;;9.90;99.90;;;;;;4951847;29;20513;-74
2023/04/13 08:47:35;;;;;;;;;;;9.90;99.90;;;;;;4945881;29;20232;-75
2023/04/13 08:50:01;;;;;;;;;;;9.90;99.90;;;;;;4919942;29;20246;-74
2023/04/13 08:52:27;;;;;;;;;;;10.10;99.90;;;;;;4941791;29;19915;-74
2023/04/13 08:54:54;;;;;;;;;;;10.00;99.90;;;;;;4951865;29;19922;-74
2023/04/13 08:57:20;;;;;;;;;;;10.00;99.90;;;;;;4936017;29;20255;-74
2023/04/13 08:59:46;;;;;;;;;;;10.10;99.90;;;;;;4919972;29;19910;-74
2023/04/13 09:02:11;;;;;;;;;;;10.10;99.90;;;;;;4929174;29;19915;-74
2023/04/13 09:04:37;;;;;;;;;;;10.10;99.90;;;;;;4934947;29;19918;-74
2023/04/13 09:07:03;;;;;;;;;;;10.20;99.90;;;;;;4936830;29;19915;-74
2023/04/13 09:09:31;;;;;;;;;;;10.20;99.90;;;;;;4953880;28;19910;-74
2023/04/13 09:11:57;;;;;;;;;;;10.20;99.90;;;;;;4954044;28;19966;-74
2023/04/13 09:14:23;;;;;;;;;;;10.30;99.90;;;;;;4936953;29;19925;-74
2023/04/13 09:16:48;;;;;;;;;;;10.50;99.90;;;;;;4946148;29;19914;-74
2023/04/13 09:19:14;;;;;;;;;;;10.60;99.90;;;;;;4935400;29;19915;-74
2023/04/13 09:21:43;;;;;;;;;;;10.60;99.90;;;;;;4951400;28;19914;-73
2023/04/13 09:24:09;;;;;;;;;;;10.40;99.90;;;;;;4936202;28;19919;-73
2023/04/13 09:26:39;;;;;;;;;;;10.40;99.90;;;;;;4950816;29;19911;-73
2023/04/13 09:29:07;;;;;;;;;;;10.40;99.90;;;;;;4959410;28;19961;-73
2023/04/13 09:31:33;;;;;;;;;;;10.50;99.90;;;;;;4952463;29;19994;-74
2023/04/13 09:33:59;;;;;;;;;;;10.50;99.90;;;;;;4918626;29;19997;-73
2023/04/13 09:36:25;;;;;;;;;;;10.50;99.90;;;;;;4951711;28;19944;-74
2023/04/13 09:38:52;;;;;;;;;;;10.60;99.90;;;;;;4913812;29;19925;-74
2023/04/13 09:41:37;;;;;;;;;;;10.70;99.90;;;;;;4933463;29;19911;-74
2023/04/13 09:44:19;;;;;;;;;;;10.70;99.90;;;;;;4951625;29;20588;-73
2023/04/13 09:47:01;;;;;;;;;;;10.60;99.90;;;;;;4941000;29;20391;-74
2023/04/13 09:49:39;;;;;;;;;;;10.80;99.90;;;;;;4951254;29;19925;-73
2023/04/13 09:52:07;;;;;;;;;;;10.90;99.90;;;;;;4934924;29;19911;-74
2023/04/13 09:54:33;;;;;;;;;;;11.10;99.90;;;;;;4944576;29;19918;-74
2023/04/13 09:56:58;;;;;;;;;;;11.30;99.90;;;;;;4935925;29;19937;-74
2023/04/13 09:59:24;;;;;;;;;;;11.60;99.90;;;;;;4950141;29;20316;-74
2023/04/13 10:01:50;;;;;;;;;;;11.70;99.90;;;;;;4950435;28;19930;-73
2023/04/13 10:04:16;;;;;;;;;;;11.50;99.90;;;;;;4947133;28;19919;-74
2023/04/13 10:06:42;;;;;;;;;;;11.20;99.90;;;;;;4948294;29;19949;-74
2023/04/13 10:09:08;;;;;;;;;;;11.20;99.90;;;;;;4934446;29;19922;-74
2023/04/13 10:11:38;;;;;;;;;;;11.20;99.90;;;;;;4934745;29;20001;-74
2023/04/13 10:14:08;;;;;;;;;;;11.40;99.90;;;;;;4919300;29;19910;-74
2023/04/13 10:16:36;;;;;;;;;;;11.40;99.90;;;;;;4913160;29;19948;-73
2023/04/13 10:19:03;;;;;;;;;;;11.50;99.90;;;;;;4936352;29;19918;-73
2023/04/13 10:21:34;;;;;;;;;;;11.60;99.60;;;;;;4949894;28;20247;-73
2023/04/13 10:24:01;;;;;;;;;;;11.80;99.90;;;;;;4923328;29;19927;-73
2023/04/13 10:26:33;;;;;;;;;;;11.80;99.00;;;;;;4932731;29;19940;-73
2023/04/13 10:29:00;;;;;;;;;;;11.80;98.60;;;;;;4927105;29;19915;-73
2023/04/13 10:31:47;;;;;;;;;;;11.90;97.80;;;;;;4949343;28;19919;-73
2023/04/13 10:34:26;;;;;;;;;;;12.00;97.20;;;;;;4960347;28;19911;-73
2023/04/13 10:36:57;;;;;;;;;;;11.80;99.60;;;;;;4943074;29;19915;-73
2023/04/13 10:39:26;;;;;;;;;;;11.80;98.40;;;;;;4938494;29;19910;-73
2023/04/13 10:42:01;;;;;;;;;;;11.80;98.80;;;;;;4930598;29;20501;-75
2023/04/13 10:44:28;;;;;;;;;;;12.00;98.90;;;;;;4904968;29;19922;-74
2023/04/13 10:46:53;;;;;;;;;;;12.10;97.60;;;;;;4938083;29;19990;-74
2023/04/13 10:49:29;;;;;;;;;;;12.10;98.80;;;;;;4932415;29;20005;-74
2023/04/13 10:51:55;;;;;;;;;;;12.30;97.90;;;;;;4934110;29;19970;-74
2023/04/13 10:54:20;;;;;;;;;;;12.30;98.10;;;;;;4910694;29;19922;-74
2023/04/13 10:56:55;;;;;;;;;;;12.30;96.70;;;;;;4936949;29;19965;-74
2023/04/13 10:59:22;;;;;;;;;;;12.40;96.10;;;;;;4935571;29;19989;-74
2023/04/13 11:01:47;;;;;;;;;;;12.30;96.00;;;;;;4949832;28;20351;-73
2023/04/13 11:04:14;;;;;;;;;;;12.10;96.00;;;;;;4934549;29;19918;-73
2023/04/13 11:06:40;;;;;;;;;;;12.00;95.60;;;;;;4955324;28;21309;-73
2023/04/13 11:09:05;;;;;;;;;;;12.10;95.80;;;;;;4939155;29;19977;-75
2023/04/13 11:11:31;;;;;;;;;;;12.10;94.40;;;;;;4929008;29;19922;-73
2023/04/13 11:13:57;;;;;;;;;;;12.10;93.00;;;;;;4953505;28;19961;-74
2023/04/13 11:16:22;;;;;;;;;;;12.30;92.00;;;;;;4921181;29;19910;-74
2023/04/13 11:19:02;;;;;;;;;;;12.30;92.40;;;;;;4955929;28;20013;-74
2023/04/13 11:21:28;;;;;;;;;;;12.40;90.30;;;;;;4942334;29;19945;-74
2023/04/13 11:23:55;;;;;;;;;;;12.30;90.00;;;;;;4957034;28;20493;-74
2023/04/13 11:26:31;;;;;;;;;;;12.50;90.70;;;;;;4951481;28;19922;-74
2023/04/13 11:28:57;;;;;;;;;;;12.90;91.10;;;;;;4934214;29;20308;-74
2023/04/13 11:31:44;;;;;;;;;;;13.00;86.80;;;;;;4936496;29;19970;-74
2023/04/13 11:34:10;;;;;;;;;;;12.90;87.60;;;;;;4937499;29;19918;-74
2023/04/13 11:36:39;;;;;;;;;;;13.20;88.50;;;;;;4957363;28;19945;-74
2023/04/13 11:39:09;;;;;;;;;;;13.10;88.70;;;;;;4938538;29;19910;-74
2023/04/13 11:41:41;;;;;;;;;;;13.20;88.70;;;;;;4946300;29;19988;-74
2023/04/13 11:44:10;;;;;;;;;;;13.20;90.30;;;;;;4960276;28;19946;-74
2023/04/13 11:46:35;;;;;;;;;;;13.10;91.70;;;;;;4961408;28;20385;-74
2023/04/13 11:49:01;;;;;;;;;;;13.20;91.10;;;;;;4943419;29;19921;-74
2023/04/13 11:51:29;;;;;;;;;;;13.40;91.50;;;;;;4917107;29;19919;-74
2023/04/13 11:53:56;;;;;;;;;;;13.60;91.60;;;;;;4930918;29;20005;-74
2023/04/13 11:56:22;;;;;;;;;;;13.50;87.40;;;;;;4928912;29;20001;-75
2023/04/13 11:58:54;;;;;;;;;;;13.70;86.80;;;;;;4952562;28;19914;-74
2023/04/13 12:01:20;;;;;;;;;;;13.70;85.00;;;;;;4936176;29;19925;-74
2023/04/13 12:03:46;;;;;;;;;;;13.70;79.50;;;;;;4934997;29;19914;-73
2023/04/13 12:06:14;;;;;;;;;;;13.70;75.40;;;;;;4934250;29;19938;-76
2023/04/13 12:08:40;;;;;;;;;;;13.60;77.30;;;;;;4960138;28;19929;-73
2023/04/13 12:11:07;;;;;;;;;;;13.70;78.60;;;;;;4936935;29;19921;-74
2023/04/13 12:13:40;;;;;;;;;;;13.70;79.70;;;;;;4943995;28;20041;-73
2023/04/13 12:16:09;;;;;;;;;;;13.70;79.30;;;;;;4934339;29;19910;-74
2023/04/13 12:18:44;;;;;;;;;;;13.70;81.00;;;;;;4946796;28;19910;-74
2023/04/13 12:21:17;;;;;;;;;;;14.00;78.60;;;;;;4961997;28;20489;-74
2023/04/13 12:23:56;;;;;;;;;;;13.60;78.20;;;;;;4915864;29;20322;-74
2023/04/13 12:26:29;;;;;;;;;;;13.60;80.10;;;;;;4934665;29;19997;-73
2023/04/13 12:28:57;;;;;;;;;;;13.60;79.60;;;;;;4918374;29;19950;-73
2023/04/13 12:31:23;;;;;;;;;;;13.90;80.50;;;;;;4948461;28;19985;-72
2023/04/13 12:33:50;;;;;;;;;;;13.80;79.40;;;;;;4948621;28;19919;-72
2023/04/13 12:36:16;;;;;;;;;;;13.60;80.20;;;;;;4939757;29;20319;-73
2023/04/13 12:38:42;;;;;;;;;;;13.50;78.30;;;;;;4911602;29;19919;-73
2023/04/13 12:41:08;;;;;;;;;;;13.60;80.50;;;;;;4952562;28;20402;-73
2023/04/13 12:43:34;;;;;;;;;;;13.60;80.00;;;;;;4920295;29;19966;-79
2023/04/13 12:46:00;;;;;;;;;;;13.20;79.00;;;;;;4962060;28;20125;-77
2023/04/13 12:48:26;;;;;;;;;;;13.20;81.10;;;;;;4919545;29;19910;-77
2023/04/13 12:50:52;;;;;;;;;;;13.80;83.70;;;;;;4941926;29;19917;-77
2023/04/13 12:53:17;;;;;;;;;;;14.20;81.40;;;;;;4943280;29;19910;-77
2023/04/13 12:55:43;;;;;;;;;;;14.40;77.70;;;;;;4941076;29;20421;-77
2023/04/13 12:58:09;;;;;;;;;;;14.50;75.90;;;;;;4907415;29;20358;-78
2023/04/13 13:00:35;;;;;;;;;;;14.10;77.80;;;;;;4944924;29;19921;-76
2023/04/13 13:03:01;;;;;;;;;;;13.60;79.50;;;;;;4928047;29;19914;-78
2023/04/13 13:05:27;;;;;;;;;;;13.50;80.20;;;;;;4932637;29;19973;-74
2023/04/13 13:07:53;;;;;;;;;;;13.60;81.50;;;;;;4947574;28;19950;-74
2023/04/13 13:10:18;;;;;;;;;;;13.60;82.40;;;;;;4932704;29;19911;-73
2023/04/13 13:12:45;;;;;;;;;;;13.70;82.50;;;;;;4941203;28;20005;-74
2023/04/13 13:15:13;;;;;;;;;;;14.30;81.00;;;;;;4948262;28;20283;-73
2023/04/13 13:17:39;;;;;;;;;;;14.20;79.80;;;;;;4949815;28;19914;-73
2023/04/13 13:20:06;;;;;;;;;;;13.80;80.60;;;;;;4933699;29;19915;-73
2023/04/13 13:22:32;;;;;;;;;;;13.90;81.00;;;;;;4916473;29;19922;-73
2023/04/13 13:24:57;;;;;;;;;;;13.60;81.00;;;;;;4927072;29;19922;-73
2023/04/13 13:27:23;;;;;;;;;;;13.50;84.40;;;;;;4925327;29;19925;-73
2023/04/13 13:29:49;;;;;;;;;;;13.60;82.80;;;;;;4934648;29;20517;-73
2023/04/13 13:32:15;;;;;;;;;;;13.60;82.20;;;;;;4945069;29;19946;-74
2023/04/13 13:34:40;;;;;;;;;;;13.80;81.50;;;;;;4932174;29;19929;-74
2023/04/13 13:37:06;;;;;;;;;;;14.00;79.60;;;;;;4941476;28;19978;-74
2023/04/13 13:39:32;;;;;;;;;;;14.30;78.90;;;;;;4942755;28;19922;-74
2023/04/13 13:41:57;;;;;;;;;;;14.70;81.50;;;;;;4935066;29;20002;-73
2023/04/13 13:44:24;;;;;;;;;;;15.10;75.00;;;;;;4916443;29;20263;-75
2023/04/13 13:46:49;;;;;;;;;;;15.10;72.80;;;;;;4932745;29;19915;-74
2023/04/13 13:49:15;;;;;;;;;;;14.90;70.60;;;;;;4932522;29;20268;-74
2023/04/13 13:51:41;;;;;;;;;;;14.70;71.10;;;;;;4928654;29;19919;-74
2023/04/13 13:54:08;;;;;;;;;;;14.40;74.40;;;;;;4916584;29;19914;-74
2023/04/13 13:56:33;;;;;;;;;;;14.30;73.50;;;;;;4928641;29;20673;-74
2023/04/13 13:58:59;;;;;;;;;;;14.30;75.80;;;;;;4955268;28;19911;-75
2023/04/13 14:01:24;;;;;;;;;;;14.70;74.70;;;;;;4938020;29;20001;-74
2023/04/13 14:03:50;;;;;;;;;;;15.40;72.80;;;;;;4926323;29;19919;-74
2023/04/13 14:06:16;;;;;;;;;;;15.80;67.80;;;;;;4947980;28;19921;-73
2023/04/13 14:08:42;;;;;;;;;;;16.50;66.50;;;;;;4955089;28;19917;-75
2023/04/13 14:11:13;;;;;;;;;;;16.40;63.80;;;;;;4949630;28;20307;-74
2023/04/13 14:13:39;;;;;;;;;;;16.30;63.80;;;;;;4955743;28;19922;-74
2023/04/13 14:16:04;;;;;;;;;;;16.00;62.20;;;;;;4932251;29;19911;-72
2023/04/13 14:18:30;;;;;;;;;;;15.40;63.80;;;;;;4906670;29;19919;-74
2023/04/13 14:20:59;;;;;;;;;;;15.00;65.20;;;;;;4939161;28;19998;-73
2023/04/13 14:23:25;;;;;;;;;;;15.10;63.70;;;;;;4930587;29;20750;-74
2023/04/13 14:25:51;;;;;;;;;;;14.80;66.10;;;;;;4941190;28;19954;-73